Time,TemperatureF,DewpointF,PressureIn,WindDirection,WindDirectionDegrees,WindSpeedMPH,WindSpeedGustMPH,Humidity,HourlyPrecipIn,Conditions,Clouds,dailyrainin,SoftwareType,DateUTC
2013-04-18 00:02:00,44.5,42.8,29.73,North,0,2.2,4.5,94,0.04,,,0.00,WUHU216HW,2013-04-18 05:02:00,
2013-04-18 00:07:00,44.5,42.8,29.72,NNW,338,2.5,4.3,94,0.04,,,0.00,WUHU216HW,2013-04-18 05:07:00,
2013-04-18 00:12:00,44.5,42.8,29.71,NNE,23,4.0,7.8,94,0.04,,,0.00,WUHU216HW,2013-04-18 05:12:00,
2013-04-18 00:17:00,44.5,42.8,29.72,North,0,1.3,7.8,94,0.04,,,0.00,WUHU216HW,2013-04-18 05:17:00,
2013-04-18 00:22:00,44.5,42.8,29.72,NNW,338,4.0,5.4,94,0.03,,,0.00,WUHU216HW,2013-04-18 05:22:00,
2013-04-18 00:27:00,44.5,42.8,29.72,NW,315,3.1,4.3,94,0.02,,,0.01,WUHU216HW,2013-04-18 05:27:00,
2013-04-18 00:32:00,44.5,42.8,29.72,NNW,338,6.9,7.4,94,0.04,,,0.02,WUHU216HW,2013-04-18 05:32:00,
2013-04-18 00:37:00,44.3,42.7,29.73,North,0,4.0,7.4,94,0.07,,,0.05,WUHU216HW,2013-04-18 05:37:00,
2013-04-18 00:42:00,44.1,42.5,29.73,NW,315,5.4,6.7,94,0.08,,,0.08,WUHU216HW,2013-04-18 05:42:00,
2013-04-18 00:47:00,43.9,42.3,29.73,NW,315,1.6,5.8,94,0.08,,,0.08,WUHU216HW,2013-04-18 05:47:00,
2013-04-18 00:52:00,43.9,42.3,29.71,NE,45,5.8,5.8,94,0.08,,,0.08,WUHU216HW,2013-04-18 05:52:00,
2013-04-18 00:57:00,43.9,42.3,29.72,NNW,338,2.9,5.8,94,0.08,,,0.08,WUHU216HW,2013-04-18 05:57:00,
2013-04-18 01:02:00,43.9,42.3,29.73,NNW,338,3.8,5.8,94,0.08,,,0.08,WUHU216HW,2013-04-18 06:02:00,
2013-04-18 01:07:00,43.7,42.1,29.73,NW,315,2.9,4.3,94,0.08,,,0.08,WUHU216HW,2013-04-18 06:07:00,
2013-04-18 01:12:00,43.7,42.1,29.74,NW,315,5.4,6.3,94,0.08,,,0.08,WUHU216HW,2013-04-18 06:12:00,
2013-04-18 01:17:00,43.6,41.9,29.75,NW,315,8.1,9.8,94,0.08,,,0.08,WUHU216HW,2013-04-18 06:17:00,
2013-04-18 01:22:00,43.6,41.9,29.75,WNW,293,6.3,9.8,94,0.07,,,0.08,WUHU216HW,2013-04-18 06:22:00,
2013-04-18 01:27:00,43.6,41.9,29.75,NNW,338,9.2,12.3,94,0.07,,,0.08,WUHU216HW,2013-04-18 06:27:00,
2013-04-18 01:32:00,43.4,41.8,29.75,NW,315,8.9,12.3,94,0.06,,,0.09,WUHU216HW,2013-04-18 06:32:00,
2013-04-18 01:37:00,43.2,41.6,29.74,NW,315,11.4,11.4,94,0.02,,,0.09,WUHU216HW,2013-04-18 06:37:00,
2013-04-18 01:42:00,43.2,41.6,29.74,North,0,6.0,11.4,94,0.01,,,0.09,WUHU216HW,2013-04-18 06:42:00,
2013-04-18 01:47:00,43.2,41.6,29.73,NNW,338,6.3,8.9,94,0.01,,,0.09,WUHU216HW,2013-04-18 06:47:00,
2013-04-18 01:52:00,42.8,41.2,29.73,NW,315,7.8,9.4,94,0.02,,,0.10,WUHU216HW,2013-04-18 06:52:00,
2013-04-18 01:57:00,42.8,41.2,29.73,NNW,338,6.9,9.4,94,0.04,,,0.12,WUHU216HW,2013-04-18 06:57:00,
2013-04-18 02:02:00,42.8,41.2,29.73,NW,315,6.9,6.9,94,0.06,,,0.13,WUHU216HW,2013-04-18 07:02:00,
2013-04-18 02:07:00,42.8,41.2,29.71,NNW,338,4.3,6.9,94,0.08,,,0.16,WUHU216HW,2013-04-18 07:07:00,
2013-04-18 02:12:00,42.8,41.2,29.69,NNW,338,4.7,6.9,94,0.10,,,0.18,WUHU216HW,2013-04-18 07:12:00,
2013-04-18 02:17:00,42.8,41.2,29.68,North,0,9.2,10.3,94,0.12,,,0.20,WUHU216HW,2013-04-18 07:17:00,
2013-04-18 02:22:00,42.8,41.2,29.70,NNW,338,4.5,10.3,94,0.13,,,0.21,WUHU216HW,2013-04-18 07:22:00,
2013-04-18 02:27:00,42.7,41.0,29.72,WNW,293,7.6,10.5,94,0.12,,,0.21,WUHU216HW,2013-04-18 07:27:00,
2013-04-18 02:32:00,42.5,40.9,29.69,NNW,338,2.7,10.5,94,0.12,,,0.21,WUHU216HW,2013-04-18 07:32:00,
2013-04-18 02:37:00,42.7,41.0,29.68,NNW,338,6.3,9.8,94,0.12,,,0.21,WUHU216HW,2013-04-18 07:37:00,
2013-04-18 02:42:00,42.5,40.9,29.69,NW,315,5.6,9.8,94,0.12,,,0.21,WUHU216HW,2013-04-18 07:42:00,
2013-04-18 02:47:00,42.5,40.9,29.69,NNW,338,6.3,9.8,94,0.11,,,0.21,WUHU216HW,2013-04-18 07:47:00,
2013-04-18 02:52:00,42.5,40.9,29.69,NNW,338,6.5,6.9,94,0.10,,,0.21,WUHU216HW,2013-04-18 07:52:00,
2013-04-18 02:57:00,42.5,40.9,29.68,NW,315,5.4,7.6,94,0.07,,,0.21,WUHU216HW,2013-04-18 07:57:00,
2013-04-18 03:02:00,42.5,40.9,29.67,North,0,5.1,7.6,94,0.06,,,0.21,WUHU216HW,2013-04-18 08:02:00,
2013-04-18 03:07:00,42.5,40.9,29.67,North,0,2.5,6.7,94,0.04,,,0.21,WUHU216HW,2013-04-18 08:07:00,
2013-04-18 03:12:00,42.5,40.9,29.66,NE,45,3.4,5.1,94,0.03,,,0.22,WUHU216HW,2013-04-18 08:12:00,
2013-04-18 03:17:00,42.5,40.9,29.68,NNW,338,5.6,5.6,94,0.02,,,0.22,WUHU216HW,2013-04-18 08:17:00,
2013-04-18 03:22:00,42.5,40.9,29.69,NW,315,4.3,5.6,94,0.01,,,0.22,WUHU216HW,2013-04-18 08:22:00,
2013-04-18 03:27:00,42.5,40.9,29.68,North,0,1.8,6.9,94,0.01,,,0.22,WUHU216HW,2013-04-18 08:27:00,
2013-04-18 03:31:00,42.5,40.9,29.66,NNE,23,2.0,6.9,94,0.01,,,0.22,WUHU216HW,2013-04-18 08:31:00,
2013-04-18 03:37:00,42.5,40.9,29.66,North,0,2.0,4.7,94,0.01,,,0.22,WUHU216HW,2013-04-18 08:37:00,
2013-04-18 03:42:00,42.5,40.9,29.66,NNE,23,4.0,6.3,94,0.01,,,0.22,WUHU216HW,2013-04-18 08:42:00,
2013-04-18 03:47:00,42.5,40.9,29.67,NW,315,6.9,6.9,94,0.01,,,0.22,WUHU216HW,2013-04-18 08:47:00,
2013-04-18 03:52:00,42.5,40.9,29.70,NW,315,3.4,6.9,94,0.01,,,0.22,WUHU216HW,2013-04-18 08:52:00,
2013-04-18 03:57:00,42.5,40.9,29.70,NNW,338,4.0,6.9,94,0.01,,,0.22,WUHU216HW,2013-04-18 08:57:00,
2013-04-18 04:02:00,42.5,40.9,29.71,NW,315,6.7,6.7,94,0.01,,,0.22,WUHU216HW,2013-04-18 09:02:00,
2013-04-18 04:07:00,42.5,40.9,29.70,North,0,2.5,6.7,94,0.01,,,0.22,WUHU216HW,2013-04-18 09:07:00,
2013-04-18 04:12:00,42.5,40.9,29.67,North,0,4.0,4.9,94,0.00,,,0.22,WUHU216HW,2013-04-18 09:12:00,
2013-04-18 04:17:00,42.5,40.9,29.68,NW,315,6.7,6.7,94,0.00,,,0.22,WUHU216HW,2013-04-18 09:17:00,
2013-04-18 04:22:00,42.5,40.9,29.68,NNW,338,3.6,6.7,94,0.00,,,0.22,WUHU216HW,2013-04-18 09:22:00,
2013-04-18 04:27:00,42.3,40.7,29.66,NNE,23,4.9,6.3,94,0.00,,,0.22,WUHU216HW,2013-04-18 09:27:00,
2013-04-18 04:32:00,42.3,40.7,29.66,NNW,338,4.7,6.3,94,0.00,,,0.22,WUHU216HW,2013-04-18 09:32:00,
2013-04-18 04:37:00,42.1,40.5,29.66,North,0,6.3,7.4,94,0.00,,,0.22,WUHU216HW,2013-04-18 09:37:00,
2013-04-18 04:42:00,42.1,40.5,29.65,NW,315,2.9,7.4,94,0.00,,,0.22,WUHU216HW,2013-04-18 09:42:00,
2013-04-18 04:47:00,42.1,40.5,29.64,NNE,23,3.1,11.6,94,0.00,,,0.22,WUHU216HW,2013-04-18 09:47:00,
2013-04-18 04:52:00,42.1,40.5,29.64,NNE,23,3.6,11.6,94,0.00,,,0.22,WUHU216HW,2013-04-18 09:52:00,
2013-04-18 04:57:00,42.1,40.5,29.64,North,0,4.0,9.2,94,0.00,,,0.22,WUHU216HW,2013-04-18 09:57:00,
2013-04-18 05:02:00,42.1,40.5,29.64,North,0,3.1,9.2,94,0.00,,,0.22,WUHU216HW,2013-04-18 10:02:00,
2013-04-18 05:07:00,42.1,40.5,29.63,North,0,2.0,5.4,94,0.00,,,0.22,WUHU216HW,2013-04-18 10:07:00,
2013-04-18 05:12:00,42.1,40.5,29.62,North,0,4.7,6.9,94,0.00,,,0.22,WUHU216HW,2013-04-18 10:12:00,
2013-04-18 05:17:00,42.1,40.5,29.63,NNE,23,5.8,6.9,94,0.00,,,0.22,WUHU216HW,2013-04-18 10:17:00,
2013-04-18 05:22:00,42.1,40.5,29.62,NE,45,5.4,5.8,94,0.00,,,0.22,WUHU216HW,2013-04-18 10:22:00,
2013-04-18 05:27:00,42.1,40.5,29.61,NNE,23,6.7,7.2,94,0.00,,,0.22,WUHU216HW,2013-04-18 10:27:00,
2013-04-18 05:32:00,42.1,40.5,29.62,ENE,68,2.0,7.2,94,0.00,,,0.22,WUHU216HW,2013-04-18 10:32:00,
2013-04-18 05:37:00,42.1,40.5,29.63,North,0,3.8,6.5,94,0.00,,,0.22,WUHU216HW,2013-04-18 10:37:00,
2013-04-18 05:42:00,42.1,40.5,29.64,East,90,4.9,6.5,94,0.00,,,0.22,WUHU216HW,2013-04-18 10:42:00,
2013-04-18 05:47:00,41.9,40.3,29.64,North,0,2.0,6.3,94,0.00,,,0.22,WUHU216HW,2013-04-18 10:47:00,
2013-04-18 05:52:00,41.8,40.1,29.64,NNW,338,1.8,6.3,94,0.00,,,0.22,WUHU216HW,2013-04-18 10:52:00,
2013-04-18 05:57:00,41.9,40.3,29.64,North,0,2.7,5.4,94,0.00,,,0.22,WUHU216HW,2013-04-18 10:57:00,
2013-04-18 06:02:00,41.9,40.3,29.64,NNW,338,4.9,5.4,94,0.00,,,0.22,WUHU216HW,2013-04-18 11:02:00,
2013-04-18 06:07:00,41.8,40.1,29.64,NNW,338,7.2,7.4,94,0.00,,,0.22,WUHU216HW,2013-04-18 11:07:00,
2013-04-18 06:12:00,41.6,40.0,29.64,NNW,338,6.3,8.5,94,0.00,,,0.22,WUHU216HW,2013-04-18 11:12:00,
2013-04-18 06:17:00,41.6,40.0,29.65,NNW,338,5.6,6.3,94,0.00,,,0.22,WUHU216HW,2013-04-18 11:17:00,
2013-04-18 06:22:00,41.4,39.8,29.66,North,0,3.6,7.8,94,0.00,,,0.22,WUHU216HW,2013-04-18 11:22:00,
2013-04-18 06:27:00,41.4,39.8,29.66,NW,315,3.8,7.8,94,0.00,,,0.22,WUHU216HW,2013-04-18 11:27:00,
2013-04-18 06:32:00,41.4,39.8,29.66,North,0,4.0,6.0,94,0.00,,,0.22,WUHU216HW,2013-04-18 11:32:00,
2013-04-18 06:37:00,41.4,39.8,29.66,NNW,338,4.3,4.7,94,0.00,,,0.22,WUHU216HW,2013-04-18 11:37:00,
2013-04-18 06:42:00,41.2,39.6,29.66,NW,315,4.5,6.3,94,0.00,,,0.22,WUHU216HW,2013-04-18 11:42:00,
2013-04-18 06:47:00,41.0,39.4,29.67,NW,315,4.0,8.5,94,0.00,,,0.22,WUHU216HW,2013-04-18 11:47:00,
2013-04-18 06:52:00,40.9,39.2,29.67,NNW,338,4.0,8.5,94,0.00,,,0.22,WUHU216HW,2013-04-18 11:52:00,
2013-04-18 06:57:00,40.7,39.1,29.67,NW,315,3.4,6.9,94,0.00,,,0.22,WUHU216HW,2013-04-18 11:57:00,
2013-04-18 07:02:00,40.7,39.1,29.67,NW,315,5.8,7.4,94,0.01,,,0.23,WUHU216HW,2013-04-18 12:02:00,
2013-04-18 07:07:00,40.5,38.9,29.67,NNW,338,6.9,7.6,94,0.01,,,0.23,WUHU216HW,2013-04-18 12:07:00,
2013-04-18 07:12:00,40.3,38.7,29.68,NW,315,10.5,10.5,94,0.01,,,0.23,WUHU216HW,2013-04-18 12:12:00,
2013-04-18 07:17:00,40.1,38.3,29.68,WNW,293,7.8,10.5,93,0.01,,,0.23,WUHU216HW,2013-04-18 12:17:00,
2013-04-18 07:22:00,40.1,38.3,29.68,NNW,338,6.0,7.8,93,0.01,,,0.23,WUHU216HW,2013-04-18 12:22:00,
2013-04-18 07:27:00,40.0,38.1,29.68,NNW,338,5.4,8.5,93,0.01,,,0.23,WUHU216HW,2013-04-18 12:27:00,
2013-04-18 07:32:00,40.0,38.1,29.68,NNW,338,6.9,8.5,93,0.01,,,0.23,WUHU216HW,2013-04-18 12:32:00,
2013-04-18 07:37:00,40.0,38.1,29.69,NW,315,6.5,9.2,93,0.01,,,0.23,WUHU216HW,2013-04-18 12:37:00,
2013-04-18 07:42:00,39.8,37.9,29.69,WNW,293,5.6,9.2,93,0.01,,,0.23,WUHU216HW,2013-04-18 12:42:00,
2013-04-18 07:47:00,40.0,38.1,29.69,NNW,338,6.9,7.4,93,0.01,,,0.23,WUHU216HW,2013-04-18 12:47:00,
2013-04-18 07:52:00,39.6,37.7,29.68,NNW,338,6.3,8.7,93,0.01,,,0.23,WUHU216HW,2013-04-18 12:52:00,
2013-04-18 07:57:00,39.6,37.7,29.67,NNW,338,6.0,8.7,93,0.00,,,0.23,WUHU216HW,2013-04-18 12:57:00,
2013-04-18 08:02:00,39.6,38.0,29.67,WNW,293,6.7,8.5,94,0.00,,,0.23,WUHU216HW,2013-04-18 13:02:00,
2013-04-18 08:07:00,39.4,37.8,29.67,WNW,293,7.4,11.4,94,0.00,,,0.23,WUHU216HW,2013-04-18 13:07:00,
2013-04-18 08:12:00,39.2,37.6,29.67,NW,315,7.8,11.4,94,0.00,,,0.23,WUHU216HW,2013-04-18 13:12:00,
2013-04-18 08:17:00,39.2,37.6,29.67,NW,315,5.4,8.7,94,0.00,,,0.23,WUHU216HW,2013-04-18 13:17:00,
2013-04-18 08:22:00,39.2,37.6,29.68,West,270,6.7,8.7,94,0.00,,,0.23,WUHU216HW,2013-04-18 13:22:00,
2013-04-18 08:27:00,39.2,37.6,29.68,WNW,293,7.6,9.8,94,0.00,,,0.23,WUHU216HW,2013-04-18 13:27:00,
2013-04-18 08:32:00,39.2,37.6,29.68,NNW,338,7.8,9.8,94,0.00,,,0.23,WUHU216HW,2013-04-18 13:32:00,
2013-04-18 08:37:00,39.2,37.6,29.68,West,270,11.2,11.2,94,0.01,,,0.24,WUHU216HW,2013-04-18 13:37:00,
2013-04-18 08:42:00,39.1,37.4,29.68,NNW,338,10.5,11.4,94,0.01,,,0.24,WUHU216HW,2013-04-18 13:42:00,
2013-04-18 08:47:00,39.1,37.4,29.68,NW,315,10.1,14.1,94,0.01,,,0.24,WUHU216HW,2013-04-18 13:47:00,
2013-04-18 08:52:00,39.1,37.4,29.68,NW,315,10.1,14.1,94,0.01,,,0.24,WUHU216HW,2013-04-18 13:52:00,
2013-04-18 08:57:00,38.9,37.3,29.68,NNW,338,11.6,17.9,94,0.01,,,0.24,WUHU216HW,2013-04-18 13:57:00,
2013-04-18 09:02:00,38.7,37.1,29.68,NW,315,12.1,14.3,94,0.01,,,0.24,WUHU216HW,2013-04-18 14:02:00,
2013-04-18 09:07:00,38.7,37.1,29.68,WNW,293,11.6,14.3,94,0.01,,,0.24,WUHU216HW,2013-04-18 14:07:00,
2013-04-18 09:12:00,38.5,36.9,29.68,NW,315,16.1,17.4,94,0.01,,,0.24,WUHU216HW,2013-04-18 14:12:00,
2013-04-18 09:17:00,38.5,36.9,29.68,NNW,338,13.6,17.4,94,0.01,,,0.24,WUHU216HW,2013-04-18 14:17:00,
2013-04-18 09:22:00,38.5,36.9,29.67,NW,315,13.4,14.1,94,0.01,,,0.24,WUHU216HW,2013-04-18 14:22:00,
2013-04-18 09:27:00,38.5,36.9,29.67,NW,315,15.7,15.7,94,0.01,,,0.24,WUHU216HW,2013-04-18 14:27:00,
2013-04-18 09:32:00,38.5,36.9,29.68,NNW,338,9.6,15.7,94,0.00,,,0.24,WUHU216HW,2013-04-18 14:32:00,
2013-04-18 09:37:00,38.5,36.9,29.69,NNW,338,10.7,14.8,94,0.00,,,0.24,WUHU216HW,2013-04-18 14:37:00,
2013-04-18 09:42:00,38.5,36.9,29.69,NW,315,14.8,14.8,94,0.00,,,0.24,WUHU216HW,2013-04-18 14:42:00,
2013-04-18 09:47:00,38.5,36.6,29.69,NNW,338,11.0,14.8,93,0.00,,,0.24,WUHU216HW,2013-04-18 14:47:00,
2013-04-18 09:52:00,38.5,36.9,29.69,NW,315,13.4,15.7,94,0.01,,,0.25,WUHU216HW,2013-04-18 14:52:00,
2013-04-18 09:57:00,38.5,36.6,29.69,NW,315,10.5,15.7,93,0.01,,,0.25,WUHU216HW,2013-04-18 14:57:00,
2013-04-18 10:02:00,38.5,36.6,29.69,NW,315,9.6,14.5,93,0.01,,,0.25,WUHU216HW,2013-04-18 15:02:00,
2013-04-18 10:07:00,38.7,36.8,29.69,WNW,293,12.8,16.6,93,0.01,,,0.25,WUHU216HW,2013-04-18 15:07:00,
2013-04-18 10:12:00,38.9,37.0,29.69,NW,315,14.5,17.9,93,0.01,,,0.25,WUHU216HW,2013-04-18 15:12:00,
2013-04-18 10:17:00,38.7,36.8,29.70,WNW,293,15.7,17.9,93,0.01,,,0.25,WUHU216HW,2013-04-18 15:17:00,
2013-04-18 10:22:00,38.5,36.6,29.70,WNW,293,13.4,19.9,93,0.01,,,0.25,WUHU216HW,2013-04-18 15:22:00,
2013-04-18 10:27:00,38.3,36.5,29.71,NW,315,9.8,22.1,93,0.01,,,0.25,WUHU216HW,2013-04-18 15:27:00,
2013-04-18 10:32:00,38.3,36.5,29.71,WNW,293,21.7,22.1,93,0.02,,,0.26,WUHU216HW,2013-04-18 15:32:00,
2013-04-18 10:37:00,38.2,36.0,29.71,WNW,293,20.8,21.7,92,0.02,,,0.26,WUHU216HW,2013-04-18 15:37:00,
2013-04-18 10:42:00,38.0,35.8,29.72,WNW,293,17.9,21.7,92,0.02,,,0.26,WUHU216HW,2013-04-18 15:42:00,
2013-04-18 10:47:00,37.8,35.6,29.72,NW,315,18.3,21.7,92,0.01,,,0.26,WUHU216HW,2013-04-18 15:47:00,
2013-04-18 10:52:00,37.8,35.6,29.72,NW,315,13.0,18.3,92,0.01,,,0.26,WUHU216HW,2013-04-18 15:52:00,
2013-04-18 10:57:00,38.0,35.8,29.72,NNW,338,11.4,19.7,92,0.01,,,0.26,WUHU216HW,2013-04-18 15:57:00,
2013-04-18 11:02:00,38.2,36.3,29.72,NW,315,13.0,19.7,93,0.01,,,0.26,WUHU216HW,2013-04-18 16:02:00,
2013-04-18 11:07:00,38.2,36.0,29.72,NW,315,18.6,18.6,92,0.01,,,0.26,WUHU216HW,2013-04-18 16:07:00,
2013-04-18 11:12:00,38.3,36.2,29.72,NNW,338,13.9,18.6,92,0.01,,,0.26,WUHU216HW,2013-04-18 16:12:00,
2013-04-18 11:17:00,38.9,36.5,29.72,NW,315,12.5,17.9,91,0.01,,,0.26,WUHU216HW,2013-04-18 16:17:00,
2013-04-18 11:22:00,39.1,36.9,29.72,WNW,293,8.5,14.3,92,0.01,,,0.26,WUHU216HW,2013-04-18 16:22:00,
2013-04-18 11:27:00,39.8,37.6,29.72,NNW,338,8.5,15.9,92,0.01,,,0.26,WUHU216HW,2013-04-18 16:27:00,
2013-04-18 11:32:00,40.0,37.5,29.72,NW,315,8.1,15.9,91,0.00,,,0.26,WUHU216HW,2013-04-18 16:32:00,
2013-04-18 11:37:00,40.1,37.7,29.73,NNW,338,8.1,14.1,91,0.00,,,0.26,WUHU216HW,2013-04-18 16:37:00,
2013-04-18 11:42:00,39.8,36.2,29.73,NW,315,16.6,19.0,87,0.00,,,0.26,WUHU216HW,2013-04-18 16:42:00,
2013-04-18 11:47:00,39.6,36.6,29.73,NW,315,16.3,20.1,89,0.00,,,0.26,WUHU216HW,2013-04-18 16:47:00,
2013-04-18 11:52:00,40.0,37.0,29.74,NW,315,10.5,20.1,89,0.00,,,0.26,WUHU216HW,2013-04-18 16:52:00,
2013-04-18 11:57:00,40.1,36.8,29.74,NW,315,16.8,18.1,88,0.00,,,0.26,WUHU216HW,2013-04-18 16:57:00,
2013-04-18 12:02:00,40.0,36.4,29.74,NW,315,12.8,17.2,87,0.00,,,0.26,WUHU216HW,2013-04-18 17:02:00,
2013-04-18 12:07:00,40.0,36.4,29.74,NW,315,9.8,17.9,87,0.00,,,0.26,WUHU216HW,2013-04-18 17:07:00,
2013-04-18 12:12:00,40.0,36.6,29.73,WNW,293,16.1,17.9,88,0.00,,,0.26,WUHU216HW,2013-04-18 17:12:00,
2013-04-18 12:17:00,40.3,37.0,29.74,NNW,338,19.2,21.5,88,0.00,,,0.26,WUHU216HW,2013-04-18 17:17:00,
2013-04-18 12:22:00,40.1,36.8,29.74,NW,315,10.1,21.5,88,0.00,,,0.26,WUHU216HW,2013-04-18 17:22:00,
2013-04-18 12:27:00,41.0,37.7,29.74,WNW,293,12.1,18.8,88,0.00,,,0.26,WUHU216HW,2013-04-18 17:27:00,
2013-04-18 12:32:00,41.0,37.5,29.74,WNW,293,13.4,17.4,87,0.00,,,0.26,WUHU216HW,2013-04-18 17:32:00,
2013-04-18 12:37:00,41.0,37.7,29.74,WNW,293,8.5,17.4,88,0.00,,,0.26,WUHU216HW,2013-04-18 17:37:00,
2013-04-18 12:42:00,41.2,37.6,29.74,West,270,14.5,19.9,87,0.00,,,0.26,WUHU216HW,2013-04-18 17:42:00,
2013-04-18 12:47:00,41.4,37.8,29.75,NW,315,16.8,19.9,87,0.00,,,0.26,WUHU216HW,2013-04-18 17:47:00,
2013-04-18 12:52:00,41.4,37.4,29.76,WNW,293,11.9,18.8,86,0.00,,,0.26,WUHU216HW,2013-04-18 17:52:00,
2013-04-18 12:58:00,40.7,36.8,29.76,NNW,338,12.5,19.0,86,0.00,,,0.26,WUHU216HW,2013-04-18 17:58:00,
2013-04-18 13:03:00,40.7,36.8,29.77,NW,315,13.2,19.0,86,0.00,,,0.26,WUHU216HW,2013-04-18 18:03:00,
2013-04-18 13:08:00,40.3,36.7,29.77,NW,315,18.6,18.6,87,0.00,,,0.26,WUHU216HW,2013-04-18 18:08:00,
2013-04-18 13:13:00,40.0,36.4,29.77,North,0,11.4,18.6,87,0.00,,,0.26,WUHU216HW,2013-04-18 18:13:00,
2013-04-18 13:18:00,40.1,36.5,29.77,NW,315,11.2,14.8,87,0.00,,,0.26,WUHU216HW,2013-04-18 18:18:00,
2013-04-18 13:23:00,40.0,36.1,29.78,WNW,293,8.1,18.1,86,0.00,,,0.26,WUHU216HW,2013-04-18 18:23:00,
2013-04-18 13:28:00,40.0,36.1,29.78,WNW,293,14.1,18.1,86,0.00,,,0.26,WUHU216HW,2013-04-18 18:28:00,
2013-04-18 13:33:00,39.4,35.6,29.78,West,270,14.5,16.8,86,0.00,,,0.26,WUHU216HW,2013-04-18 18:33:00,
2013-04-18 13:38:00,39.2,36.0,29.77,WNW,293,13.2,16.8,88,0.00,,,0.26,WUHU216HW,2013-04-18 18:38:00,
2013-04-18 13:43:00,39.1,35.5,29.78,NNW,338,16.6,20.1,87,0.00,,,0.26,WUHU216HW,2013-04-18 18:43:00,
2013-04-18 13:48:00,38.9,35.3,29.78,WNW,293,19.9,20.1,87,0.00,,,0.26,WUHU216HW,2013-04-18 18:48:00,
2013-04-18 13:53:00,39.1,35.2,29.78,NW,315,10.3,19.9,86,0.00,,,0.26,WUHU216HW,2013-04-18 18:53:00,
2013-04-18 13:58:00,39.2,35.4,29.79,NW,315,13.2,16.1,86,0.00,,,0.26,WUHU216HW,2013-04-18 18:58:00,
2013-04-18 14:03:00,39.2,34.8,29.79,WNW,293,14.5,17.4,84,0.00,,,0.26,WUHU216HW,2013-04-18 19:03:00,
2013-04-18 14:08:00,40.0,35.5,29.79,NW,315,10.5,17.7,84,0.00,,,0.26,WUHU216HW,2013-04-18 19:08:00,
2013-04-18 14:13:00,40.9,36.4,29.79,NW,315,11.9,17.7,84,0.00,,,0.26,WUHU216HW,2013-04-18 19:13:00,
2013-04-18 14:18:00,41.0,36.2,29.79,NW,315,9.6,16.3,83,0.00,,,0.26,WUHU216HW,2013-04-18 19:18:00,
2013-04-18 14:23:00,40.5,35.4,29.79,NW,315,11.2,15.7,82,0.00,,,0.26,WUHU216HW,2013-04-18 19:23:00,
2013-04-18 14:28:00,40.0,34.6,29.79,WNW,293,14.3,15.7,81,0.00,,,0.26,WUHU216HW,2013-04-18 19:28:00,
2013-04-18 14:33:00,39.6,34.8,29.79,NW,315,12.3,17.2,83,0.00,,,0.26,WUHU216HW,2013-04-18 19:33:00,
2013-04-18 14:38:00,39.2,34.2,29.80,NW,315,18.3,21.5,82,0.00,,,0.26,WUHU216HW,2013-04-18 19:38:00,
2013-04-18 14:43:00,39.4,34.4,29.80,NW,315,12.8,21.5,82,0.00,,,0.26,WUHU216HW,2013-04-18 19:43:00,
2013-04-18 14:48:00,39.2,34.8,29.80,WNW,293,17.0,17.7,84,0.00,,,0.26,WUHU216HW,2013-04-18 19:48:00,
2013-04-18 14:53:00,39.2,34.8,29.80,NW,315,16.1,17.2,84,0.00,,,0.26,WUHU216HW,2013-04-18 19:53:00,
2013-04-18 14:58:00,39.2,34.8,29.81,NW,315,14.8,17.2,84,0.00,,,0.26,WUHU216HW,2013-04-18 19:58:00,
2013-04-18 15:03:00,38.9,34.5,29.81,NNW,338,17.9,17.9,84,0.00,,,0.26,WUHU216HW,2013-04-18 20:03:00,
2013-04-18 15:08:00,38.9,34.2,29.81,NW,315,15.0,20.6,83,0.00,,,0.26,WUHU216HW,2013-04-18 20:08:00,
2013-04-18 15:13:00,38.9,34.5,29.81,WNW,293,14.3,20.6,84,0.00,,,0.26,WUHU216HW,2013-04-18 20:13:00,
2013-04-18 15:18:00,38.5,34.1,29.82,NW,315,17.2,19.5,84,0.00,,,0.26,WUHU216HW,2013-04-18 20:18:00,
2013-04-18 15:23:00,38.2,34.0,29.82,NW,315,18.6,20.4,85,0.00,,,0.26,WUHU216HW,2013-04-18 20:23:00,
2013-04-18 15:28:00,38.2,33.8,29.82,NNW,338,14.8,20.4,84,0.00,,,0.26,WUHU216HW,2013-04-18 20:28:00,
2013-04-18 15:33:00,38.2,33.8,29.82,West,270,16.3,17.4,84,0.00,,,0.26,WUHU216HW,2013-04-18 20:33:00,
2013-04-18 15:38:00,38.2,33.8,29.82,WNW,293,13.2,16.3,84,0.00,,,0.26,WUHU216HW,2013-04-18 20:38:00,
2013-04-18 15:43:00,38.3,33.9,29.82,NW,315,15.4,16.8,84,0.00,,,0.26,WUHU216HW,2013-04-18 20:43:00,
2013-04-18 15:48:00,38.2,33.5,29.82,WNW,293,14.3,16.8,83,0.00,,,0.26,WUHU216HW,2013-04-18 20:48:00,
2013-04-18 15:53:00,38.2,33.8,29.82,NW,315,14.3,15.0,84,0.00,,,0.26,WUHU216HW,2013-04-18 20:53:00,
2013-04-18 15:58:00,38.2,33.1,29.82,NW,315,11.4,15.7,82,0.00,,,0.26,WUHU216HW,2013-04-18 20:58:00,
2013-04-18 16:03:00,38.2,33.1,29.82,NW,315,15.9,16.1,82,0.00,,,0.26,WUHU216HW,2013-04-18 21:03:00,
2013-04-18 16:08:00,38.2,33.5,29.82,WNW,293,13.2,17.2,83,0.00,,,0.26,WUHU216HW,2013-04-18 21:08:00,
2013-04-18 16:13:00,38.2,33.1,29.82,NW,315,12.8,17.4,82,0.00,,,0.26,WUHU216HW,2013-04-18 21:13:00,
2013-04-18 16:18:00,38.2,33.1,29.82,NW,315,12.5,17.4,82,0.00,,,0.26,WUHU216HW,2013-04-18 21:18:00,
2013-04-18 16:23:00,38.2,32.9,29.82,NW,315,17.4,19.9,81,0.00,,,0.26,WUHU216HW,2013-04-18 21:23:00,
2013-04-18 16:28:00,38.0,32.7,29.82,WNW,293,17.7,19.9,81,0.00,,,0.26,WUHU216HW,2013-04-18 21:28:00,
2013-04-18 16:33:00,37.8,32.8,29.83,North,0,15.7,19.2,82,0.00,,,0.26,WUHU216HW,2013-04-18 21:33:00,
2013-04-18 16:38:00,37.8,33.1,29.83,WNW,293,13.2,21.0,83,0.00,,,0.26,WUHU216HW,2013-04-18 21:38:00,
2013-04-18 16:43:00,37.6,33.0,29.84,WNW,293,12.8,21.0,83,0.00,,,0.26,WUHU216HW,2013-04-18 21:43:00,
2013-04-18 16:48:00,37.8,33.1,29.84,NW,315,10.1,17.9,83,0.00,,,0.26,WUHU216HW,2013-04-18 21:48:00,
2013-04-18 16:53:00,37.8,33.1,29.84,WNW,293,15.4,16.3,83,0.00,,,0.26,WUHU216HW,2013-04-18 21:53:00,
2013-04-18 16:58:00,37.8,33.1,29.84,WNW,293,8.7,15.9,83,0.00,,,0.26,WUHU216HW,2013-04-18 21:58:00,
2013-04-18 17:03:00,38.2,33.1,29.84,WNW,293,17.2,18.3,82,0.00,,,0.26,WUHU216HW,2013-04-18 22:03:00,
2013-04-18 17:08:00,38.0,32.7,29.84,NW,315,13.6,18.3,81,0.00,,,0.26,WUHU216HW,2013-04-18 22:08:00,
2013-04-18 17:13:00,38.2,33.1,29.85,NW,315,11.0,20.1,82,0.00,,,0.26,WUHU216HW,2013-04-18 22:13:00,
2013-04-18 17:18:00,38.7,32.8,29.85,WNW,293,20.1,20.1,79,0.00,,,0.26,WUHU216HW,2013-04-18 22:18:00,
2013-04-18 17:23:00,38.5,32.6,29.86,NW,315,12.1,20.1,79,0.00,,,0.26,WUHU216HW,2013-04-18 22:23:00,
2013-04-18 17:28:00,38.3,32.4,29.86,NW,315,9.8,20.1,79,0.00,,,0.26,WUHU216HW,2013-04-18 22:28:00,
2013-04-18 17:33:00,38.3,32.8,29.86,North,0,10.1,20.1,80,0.00,,,0.26,WUHU216HW,2013-04-18 22:33:00,
2013-04-18 17:38:00,38.3,32.8,29.87,NW,315,10.7,14.5,80,0.00,,,0.26,WUHU216HW,2013-04-18 22:38:00,
2013-04-18 17:43:00,38.3,32.8,29.87,WNW,293,13.4,13.4,80,0.00,,,0.26,WUHU216HW,2013-04-18 22:43:00,
2013-04-18 17:48:00,38.2,32.2,29.87,NNW,338,13.2,17.2,79,0.00,,,0.26,WUHU216HW,2013-04-18 22:48:00,
2013-04-18 17:53:00,38.3,31.4,29.87,NW,315,25.3,25.3,76,0.00,,,0.26,WUHU216HW,2013-04-18 22:53:00,
2013-04-18 17:58:00,38.3,31.8,29.87,WNW,293,15.7,25.3,77,0.00,,,0.26,WUHU216HW,2013-04-18 22:58:00,
2013-04-18 18:03:00,38.5,32.3,29.87,NW,315,11.4,16.3,78,0.00,,,0.26,WUHU216HW,2013-04-18 23:03:00,
2013-04-18 18:08:00,38.5,32.3,29.87,WNW,293,17.2,20.1,78,0.00,,,0.26,WUHU216HW,2013-04-18 23:08:00,
2013-04-18 18:13:00,38.2,31.6,29.87,WNW,293,17.9,20.1,77,0.00,,,0.26,WUHU216HW,2013-04-18 23:13:00,
2013-04-18 18:18:00,38.3,32.1,29.87,WNW,293,11.4,17.9,78,0.00,,,0.26,WUHU216HW,2013-04-18 23:18:00,
2013-04-18 18:23:00,38.3,32.1,29.87,NW,315,10.5,13.4,78,0.00,,,0.26,WUHU216HW,2013-04-18 23:23:00,
2013-04-18 18:28:00,38.2,31.6,29.88,NW,315,9.8,11.4,77,0.00,,,0.26,WUHU216HW,2013-04-18 23:28:00,
2013-04-18 18:33:00,38.2,32.0,29.88,WNW,293,12.8,17.0,78,0.00,,,0.26,WUHU216HW,2013-04-18 23:33:00,
2013-04-18 18:38:00,38.2,31.6,29.88,NW,315,11.9,17.0,77,0.00,,,0.26,WUHU216HW,2013-04-18 23:38:00,
2013-04-18 18:43:00,38.2,31.6,29.88,NW,315,14.1,14.1,77,0.00,,,0.26,WUHU216HW,2013-04-18 23:43:00,
2013-04-18 18:48:00,38.2,31.2,29.88,WNW,293,9.8,15.4,76,0.00,,,0.26,WUHU216HW,2013-04-18 23:48:00,
2013-04-18 18:53:00,38.2,31.6,29.88,WNW,293,10.7,15.4,77,0.00,,,0.26,WUHU216HW,2013-04-18 23:53:00,
2013-04-18 18:58:00,38.2,31.2,29.89,NW,315,14.1,16.3,76,0.00,,,0.26,WUHU216HW,2013-04-18 23:58:00,
2013-04-18 19:03:00,38.0,31.1,29.89,NW,315,14.8,16.3,76,0.00,,,0.26,WUHU216HW,2013-04-19 00:03:00,
2013-04-18 19:08:00,38.0,31.4,29.89,WNW,293,14.3,15.9,77,0.00,,,0.26,WUHU216HW,2013-04-19 00:08:00,
2013-04-18 19:13:00,38.0,31.1,29.88,NNW,338,13.6,16.3,76,0.00,,,0.26,WUHU216HW,2013-04-19 00:13:00,
2013-04-18 19:18:00,37.8,30.9,29.89,West,270,11.4,16.3,76,0.00,,,0.26,WUHU216HW,2013-04-19 00:18:00,
2013-04-18 19:23:00,37.8,30.9,29.88,NNW,338,12.3,15.7,76,0.00,,,0.26,WUHU216HW,2013-04-19 00:23:00,
2013-04-18 19:28:00,37.8,31.2,29.89,NW,315,10.3,15.7,77,0.00,,,0.26,WUHU216HW,2013-04-19 00:28:00,
2013-04-18 19:33:00,37.8,30.9,29.89,NW,315,9.8,14.3,76,0.00,,,0.26,WUHU216HW,2013-04-19 00:33:00,
2013-04-18 19:38:00,37.6,30.8,29.89,NW,315,19.5,19.5,76,0.00,,,0.26,WUHU216HW,2013-04-19 00:38:00,
2013-04-18 19:43:00,37.8,30.9,29.89,NW,315,13.2,19.5,76,0.00,,,0.26,WUHU216HW,2013-04-19 00:43:00,
2013-04-18 19:48:00,37.6,30.8,29.89,NW,315,12.1,19.5,76,0.00,,,0.26,WUHU216HW,2013-04-19 00:48:00,
2013-04-18 19:53:00,37.6,31.1,29.90,WNW,293,11.9,16.1,77,0.00,,,0.26,WUHU216HW,2013-04-19 00:53:00,
2013-04-18 19:58:00,37.4,30.9,29.90,NW,315,15.7,15.7,77,0.00,,,0.26,WUHU216HW,2013-04-19 00:58:00,
2013-04-18 20:03:00,37.4,30.6,29.90,NW,315,16.3,17.2,76,0.00,,,0.26,WUHU216HW,2013-04-19 01:03:00,
2013-04-18 20:08:00,37.4,30.6,29.90,WNW,293,18.6,21.0,76,0.00,,,0.26,WUHU216HW,2013-04-19 01:08:00,
2013-04-18 20:13:00,37.4,30.9,29.90,WNW,293,12.5,21.0,77,0.00,,,0.26,WUHU216HW,2013-04-19 01:13:00,
2013-04-18 20:18:00,37.3,30.4,29.91,NW,315,14.5,17.2,76,0.00,,,0.26,WUHU216HW,2013-04-19 01:18:00,
2013-04-18 20:23:00,37.3,30.4,29.91,NW,315,15.7,16.1,76,0.00,,,0.26,WUHU216HW,2013-04-19 01:23:00,
2013-04-18 20:28:00,37.1,29.9,29.91,NW,315,12.1,15.7,75,0.00,,,0.26,WUHU216HW,2013-04-19 01:28:00,
2013-04-18 20:33:00,37.3,29.7,29.91,WNW,293,13.0,17.0,74,0.00,,,0.26,WUHU216HW,2013-04-19 01:33:00,
2013-04-18 20:38:00,37.3,30.1,29.91,NW,315,22.4,22.4,75,0.00,,,0.26,WUHU216HW,2013-04-19 01:38:00,
2013-04-18 20:43:00,37.1,30.3,29.92,West,270,11.4,22.4,76,0.00,,,0.26,WUHU216HW,2013-04-19 01:43:00,
2013-04-18 20:48:00,37.1,29.9,29.92,NW,315,13.2,17.4,75,0.00,,,0.26,WUHU216HW,2013-04-19 01:48:00,
2013-04-18 20:53:00,37.1,30.3,29.92,NNW,338,13.6,17.4,76,0.00,,,0.26,WUHU216HW,2013-04-19 01:53:00,
2013-04-18 20:58:00,37.1,30.3,29.92,NW,315,13.4,14.3,76,0.00,,,0.26,WUHU216HW,2013-04-19 01:58:00,
2013-04-18 21:03:00,37.1,30.3,29.92,NW,315,12.8,14.3,76,0.00,,,0.26,WUHU216HW,2013-04-19 02:03:00,
2013-04-18 21:08:00,37.1,30.5,29.92,NNW,338,12.1,17.9,77,0.00,,,0.26,WUHU216HW,2013-04-19 02:08:00,
2013-04-18 21:13:00,36.9,30.1,29.93,NW,315,10.3,17.9,76,0.00,,,0.26,WUHU216HW,2013-04-19 02:13:00,
2013-04-18 21:18:00,36.9,30.1,29.93,NW,315,10.7,22.1,76,0.00,,,0.26,WUHU216HW,2013-04-19 02:18:00,
2013-04-18 21:23:00,36.9,29.7,29.93,NW,315,11.4,22.1,75,0.00,,,0.26,WUHU216HW,2013-04-19 02:23:00,
2013-04-18 21:28:00,36.9,29.3,29.93,WNW,293,13.0,14.5,74,0.00,,,0.26,WUHU216HW,2013-04-19 02:28:00,
2013-04-18 21:33:00,36.9,29.7,29.93,NW,315,11.2,16.1,75,0.00,,,0.26,WUHU216HW,2013-04-19 02:33:00,
2013-04-18 21:38:00,36.7,29.9,29.93,NW,315,11.2,16.1,76,0.00,,,0.26,WUHU216HW,2013-04-19 02:38:00,
2013-04-18 21:43:00,36.7,29.9,29.94,WNW,293,15.7,17.9,76,0.00,,,0.26,WUHU216HW,2013-04-19 02:43:00,
2013-04-18 21:48:00,36.7,29.9,29.94,WNW,293,9.2,17.9,76,0.00,,,0.26,WUHU216HW,2013-04-19 02:48:00,
2013-04-18 21:53:00,36.7,30.2,29.94,North,0,9.4,14.3,77,0.00,,,0.26,WUHU216HW,2013-04-19 02:53:00,
2013-04-18 21:58:00,36.5,29.7,29.94,NW,315,15.7,15.7,76,0.00,,,0.26,WUHU216HW,2013-04-19 02:58:00,
2013-04-18 22:03:00,36.5,29.3,29.94,NW,315,15.0,15.7,75,0.00,,,0.26,WUHU216HW,2013-04-19 03:03:00,
2013-04-18 22:08:00,36.4,28.8,29.94,WNW,293,20.1,20.1,74,0.00,,,0.26,WUHU216HW,2013-04-19 03:08:00,
2013-04-18 22:13:00,36.4,28.5,29.94,NNW,338,11.6,20.4,73,0.00,,,0.26,WUHU216HW,2013-04-19 03:13:00,
2013-04-18 22:18:00,36.4,28.5,29.94,NW,315,12.1,20.4,73,0.00,,,0.26,WUHU216HW,2013-04-19 03:18:00,
2013-04-18 22:23:00,36.4,28.8,29.94,North,0,14.3,17.4,74,0.00,,,0.26,WUHU216HW,2013-04-19 03:23:00,
2013-04-18 22:28:00,36.4,28.8,29.94,NW,315,12.8,14.3,74,0.00,,,0.26,WUHU216HW,2013-04-19 03:28:00,
2013-04-18 22:33:00,36.4,29.2,29.94,NNW,338,11.4,12.8,75,0.00,,,0.26,WUHU216HW,2013-04-19 03:33:00,
2013-04-18 22:38:00,36.2,29.0,29.94,NW,315,17.0,17.0,75,0.00,,,0.26,WUHU216HW,2013-04-19 03:38:00,
2013-04-18 22:43:00,36.4,29.5,29.94,NW,315,10.3,17.0,76,0.00,,,0.26,WUHU216HW,2013-04-19 03:43:00,
2013-04-18 22:48:00,36.2,29.4,29.94,WNW,293,15.0,16.8,76,0.00,,,0.26,WUHU216HW,2013-04-19 03:48:00,
2013-04-18 22:53:00,36.0,28.8,29.93,WNW,293,14.3,16.8,75,0.00,,,0.26,WUHU216HW,2013-04-19 03:53:00,
2013-04-18 22:58:00,36.0,28.8,29.94,NW,315,12.8,15.9,75,0.00,,,0.26,WUHU216HW,2013-04-19 03:58:00,
2013-04-18 23:01:00,36.0,28.8,29.93,NW,315,11.2,14.3,75,0.00,,,0.26,WUHU216HW,2013-04-19 04:01:00,
2013-04-18 23:06:00,36.0,28.8,29.94,NNW,338,8.1,14.1,75,0.00,,,0.26,WUHU216HW,2013-04-19 04:06:00,
2013-04-18 23:11:00,35.8,28.6,29.93,NW,315,11.6,12.8,75,0.00,,,0.26,WUHU216HW,2013-04-19 04:11:00,
2013-04-18 23:16:00,35.8,28.3,29.93,WNW,293,13.2,14.5,74,0.00,,,0.26,WUHU216HW,2013-04-19 04:16:00,
2013-04-18 23:21:00,35.8,28.6,29.93,WSW,248,12.3,14.5,75,0.00,,,0.26,WUHU216HW,2013-04-19 04:21:00,
2013-04-18 23:26:00,35.8,28.6,29.93,NW,315,7.6,14.5,75,0.00,,,0.26,WUHU216HW,2013-04-19 04:26:00,
2013-04-18 23:31:00,35.6,28.8,29.93,NNW,338,10.5,14.5,76,0.00,,,0.26,WUHU216HW,2013-04-19 04:31:00,
2013-04-18 23:36:00,35.6,28.8,29.92,NW,315,11.0,12.8,76,0.00,,,0.26,WUHU216HW,2013-04-19 04:36:00,
2013-04-18 23:41:00,35.5,27.9,29.92,WNW,293,11.4,17.0,74,0.00,,,0.26,WUHU216HW,2013-04-19 04:41:00,
2013-04-18 23:46:00,35.5,28.3,29.92,NW,315,10.3,17.0,75,0.00,,,0.26,WUHU216HW,2013-04-19 04:46:00,
2013-04-18 23:51:00,35.5,28.6,29.92,WNW,293,16.1,16.1,76,0.00,,,0.26,WUHU216HW,2013-04-19 04:51:00,
2013-04-18 23:56:00,35.3,28.5,29.92,NW,315,10.5,16.1,76,0.00,,,0.00,WUHU216HW,2013-04-19 04:56:00,